FMO weather

Münster Osnabrück Airport
Münster, North Rhine-Westphalia, Germany

Public forecast

Using degrees Celsius for public forecast. Weather courtesy of forecast.io.

METAR (pilot weather report)

Retrieved 2018/07/23 06:20 UTC (28 minutes ago):

EDDG 230620Z 30003KT 260V010 CAVOK 20/14 Q1017 NOSIG

TAF (pilot weather forecast)

Retrieved 2018/07/23 06:27 UTC (21 minutes ago):

TAF EDDG 230500Z 2306/2406 VRB03KT CAVOK